Time;durP1;ratioP1;P1;durP2;ratioP2;P2;SDS_P1;SDS_P2;PMS_P1;PMS_P2;Temp;Humidity;BMP_temperature;BMP_pressure;BME280_temperature;BME280_humidity;BME280_pressure;Samples;Min_cycle;Max_cycle;Signal;HPM_P1;HPM_P2
2020/12/26 00:01:23;;;;;;;18.15;8.68;;;;;;;1.90;90.23;101247.72;5035591;28;20451;-73
2020/12/26 00:03:49;;;;;;;20.67;9.13;;;;;;;1.94;90.56;101243.31;5017854;28;20099;-73
2020/12/26 00:06:20;;;;;;;15.18;8.77;;;;;;;1.92;90.94;101234.56;5035317;28;20327;-73
2020/12/26 00:08:48;;;;;;;17.55;8.15;;;;;;;1.90;90.05;101244.22;5013961;28;20045;-72
2020/12/26 00:11:15;;;;;;;15.10;9.02;;;;;;;1.86;90.79;101245.13;5044417;28;20386;-72
2020/12/26 00:13:42;;;;;;;16.48;8.65;;;;;;;1.89;90.70;101242.47;5045699;28;20049;-73
2020/12/26 00:16:10;;;;;;;19.20;9.13;;;;;;;1.92;89.98;101245.09;5044551;28;20052;-72
2020/12/26 00:18:37;;;;;;;19.35;9.43;;;;;;;1.99;89.93;101246.78;5035969;28;20077;-73
2020/12/26 00:21:06;;;;;;;18.35;9.52;;;;;;;1.85;90.56;101235.50;5036126;28;20064;-73
2020/12/26 00:23:33;;;;;;;20.67;8.82;;;;;;;1.89;90.14;101232.81;5035578;28;20076;-72
2020/12/26 00:25:59;;;;;;;17.40;9.60;;;;;;;1.85;89.93;101238.13;5034782;28;20065;-72
2020/12/26 00:28:25;;;;;;;19.42;9.18;;;;;;;1.76;90.75;101229.38;5035550;28;20057;-72
2020/12/26 00:30:51;;;;;;;17.55;9.20;;;;;;;1.87;90.77;101231.09;5018164;28;20049;-72
2020/12/26 00:33:17;;;;;;;16.33;9.80;;;;;;;1.75;90.67;101224.16;5035228;28;20056;-73
2020/12/26 00:35:43;;;;;;;20.73;8.93;;;;;;;1.80;91.01;101224.13;5034561;28;20053;-73
2020/12/26 00:38:09;;;;;;;18.95;9.35;;;;;;;1.76;91.32;101229.38;5035642;28;20049;-73
2020/12/26 00:40:36;;;;;;;24.27;9.93;;;;;;;1.69;91.29;101232.94;5035473;28;20111;-73
2020/12/26 00:43:02;;;;;;;13.93;9.35;;;;;;;1.67;91.13;101226.84;5035692;28;20131;-73
2020/12/26 00:45:28;;;;;;;20.88;10.38;;;;;;;1.63;91.56;101228.59;5035278;28;20436;-73
2020/12/26 00:47:54;;;;;;;16.58;9.40;;;;;;;1.58;91.37;101226.91;5035261;28;20062;-73
2020/12/26 00:50:21;;;;;;;19.33;10.45;;;;;;;1.54;91.29;101225.16;5034101;28;20053;-71
2020/12/26 00:52:47;;;;;;;18.63;10.25;;;;;;;1.51;91.48;101227.81;5035253;28;20208;-73
2020/12/26 00:55:13;;;;;;;20.00;9.82;;;;;;;1.49;91.32;101233.09;5035372;28;20045;-73
2020/12/26 00:57:42;;;;;;;21.52;10.20;;;;;;;1.45;91.76;101247.13;5034763;28;20056;-71
2020/12/26 01:00:09;;;;;;;19.23;10.63;;;;;;;1.41;92.05;101243.66;5017641;28;20057;-72
2020/12/26 01:02:36;;;;;;;18.85;10.82;;;;;;;1.46;91.76;101243.63;5034946;28;20060;-72
2020/12/26 01:05:03;;;;;;;20.98;10.30;;;;;;;1.45;91.67;101250.66;5035065;28;20502;-72
2020/12/26 01:07:29;;;;;;;23.33;11.10;;;;;;;1.43;91.97;101251.53;5035115;28;20060;-72
2020/12/26 01:09:55;;;;;;;17.27;11.13;;;;;;;1.47;91.92;101248.88;5035315;28;20320;-72
2020/12/26 01:12:22;;;;;;;21.40;11.07;;;;;;;1.43;92.20;101252.44;5017647;28;20431;-72
2020/12/26 01:14:49;;;;;;;24.02;12.68;;;;;;;1.36;92.28;101248.06;5035146;28;20453;-73
2020/12/26 01:17:15;;;;;;;21.52;13.20;;;;;;;1.32;92.65;101255.09;5034882;28;20049;-72
2020/12/26 01:19:55;;;;;;;26.50;12.55;;;;;;;1.31;92.50;101245.44;5034311;28;20099;-73
2020/12/26 01:22:22;;;;;;;21.80;13.23;;;;;;;1.36;91.90;101250.69;5017374;28;20061;-73
2020/12/26 01:24:48;;;;;;;25.85;13.10;;;;;;;1.39;92.28;101252.41;5035037;28;20075;-72
2020/12/26 01:27:14;;;;;;;22.10;11.95;;;;;;;1.43;92.08;101246.28;5017643;28;20053;-72
2020/12/26 01:29:45;;;;;;;20.67;12.50;;;;;;;1.41;92.48;101253.31;5018294;28;20132;-73
2020/12/26 01:32:11;;;;;;;21.17;11.80;;;;;;;1.45;91.89;101257.66;5017854;28;20124;-72
2020/12/26 01:34:38;;;;;;;21.85;12.52;;;;;;;1.43;92.11;101251.53;5034897;28;20052;-74
2020/12/26 01:37:04;;;;;;;24.02;12.48;;;;;;;1.40;92.23;101247.16;5033959;28;20088;-72
2020/12/26 01:39:31;;;;;;;23.00;12.00;;;;;;;1.45;91.86;101245.38;5034627;28;20060;-72
2020/12/26 01:41:57;;;;;;;22.63;12.25;;;;;;;1.50;92.00;101253.25;5034720;28;20449;-73
2020/12/26 01:44:24;;;;;;;17.42;11.00;;;;;;;1.45;91.60;101240.13;5034621;28;20490;-73
2020/12/26 01:46:51;;;;;;;22.77;11.93;;;;;;;1.53;91.66;101257.63;5034668;28;20191;-72
2020/12/26 01:49:20;;;;;;;23.17;13.30;;;;;;;1.52;91.76;101251.47;5034717;28;20077;-72
2020/12/26 01:51:47;;;;;;;20.83;11.45;;;;;;;1.58;91.73;101240.91;5034685;28;20430;-73
2020/12/26 01:54:13;;;;;;;21.50;12.07;;;;;;;1.67;91.88;101245.25;5034590;28;20050;-73
2020/12/26 01:56:40;;;;;;;18.58;11.35;;;;;;;1.63;91.45;101249.66;5034426;28;20111;-73
2020/12/26 01:59:07;;;;;;;18.63;10.88;;;;;;;1.69;91.18;101247.88;5034774;28;20059;-73
2020/12/26 02:01:39;;;;;;;19.38;10.95;;;;;;;1.75;90.64;101248.69;5033374;28;20434;-73
2020/12/26 02:04:07;;;;;;;19.75;10.45;;;;;;;1.75;90.30;101256.59;5034785;28;20053;-72
2020/12/26 02:06:53;;;;;;;23.70;12.90;;;;;;;1.76;90.73;101250.44;5034385;28;20104;-72
2020/12/26 02:09:20;;;;;;;23.08;11.27;;;;;;;1.70;91.01;101261.00;5034825;28;21039;-73
2020/12/26 02:11:46;;;;;;;16.52;10.40;;;;;;;1.68;91.06;101252.25;5038364;28;20049;-72
2020/12/26 02:14:12;;;;;;;16.83;11.10;;;;;;;1.75;91.28;101259.22;5020468;28;20413;-72
2020/12/26 02:16:56;;;;;;;18.85;11.23;;;;;;;1.72;91.10;101254.00;5038346;28;20045;-72
2020/12/26 02:19:24;;;;;;;16.05;12.15;;;;;;;1.78;90.93;101246.97;5038139;28;20434;-72
2020/12/26 02:21:51;;;;;;;21.17;12.48;;;;;;;1.71;91.58;101249.63;5037964;28;20476;-73
2020/12/26 02:24:18;;;;;;;21.40;13.48;;;;;;;1.76;91.04;101247.81;5037983;28;20719;-73
2020/12/26 02:26:44;;;;;;;20.48;11.20;;;;;;;1.80;90.86;101256.56;5038155;28;20045;-73
2020/12/26 02:29:10;;;;;;;25.30;12.05;;;;;;;1.84;90.78;101253.03;5038268;28;20053;-73
2020/12/26 02:31:37;;;;;;;25.35;13.05;;;;;;;1.76;90.64;101239.06;5038199;28;20049;-72
2020/12/26 02:34:04;;;;;;;20.40;12.07;;;;;;;1.78;91.23;101250.44;5037979;28;20049;-73
2020/12/26 02:36:30;;;;;;;21.58;11.57;;;;;;;1.76;91.16;101239.91;5038050;28;20145;-72
2020/12/26 02:38:57;;;;;;;20.35;11.98;;;;;;;1.85;90.63;101233.72;5037878;28;20347;-73
2020/12/26 02:41:23;;;;;;;21.75;11.80;;;;;;;1.86;90.59;101229.34;5037565;28;20053;-72
2020/12/26 02:43:49;;;;;;;19.23;12.45;;;;;;;1.83;90.72;101240.75;5037794;28;20084;-72
2020/12/26 02:46:15;;;;;;;24.40;12.05;;;;;;;1.83;90.92;101231.97;5037770;28;20053;-72
2020/12/26 02:48:41;;;;;;;21.27;12.30;;;;;;;1.78;91.06;101237.28;5037460;28;20103;-72
2020/12/26 02:51:08;;;;;;;19.17;11.90;;;;;;;1.82;91.31;101243.41;5037422;28;20140;-72
2020/12/26 02:53:35;;;;;;;18.23;11.85;;;;;;;1.83;91.14;101245.13;5036775;28;20479;-73
2020/12/26 02:56:03;;;;;;;24.60;11.50;;;;;;;1.85;91.37;101243.41;5020018;28;20115;-73
2020/12/26 02:58:29;;;;;;;22.58;12.13;;;;;;;1.77;91.59;101235.53;5037533;28;20443;-72
2020/12/26 03:00:55;;;;;;;19.85;11.93;;;;;;;1.78;91.83;101226.75;5020075;28;20061;-73
2020/12/26 03:03:22;;;;;;;34.25;12.18;;;;;;;1.89;91.59;101235.44;5037265;28;20061;-71
2020/12/26 03:05:49;;;;;;;23.83;11.07;;;;;;;1.87;91.33;101231.94;5037677;28;20056;-72
2020/12/26 03:08:15;;;;;;;18.30;11.63;;;;;;;1.90;91.33;101228.41;5037488;28;20061;-72
2020/12/26 03:10:41;;;;;;;16.63;11.68;;;;;;;1.87;91.17;101225.81;5037153;28;20497;-73
2020/12/26 03:13:07;;;;;;;20.17;12.13;;;;;;;1.98;90.95;101220.47;5036975;28;20088;-73
2020/12/26 03:15:33;;;;;;;22.30;11.30;;;;;;;2.00;90.84;101230.09;5037239;28;20090;-72
2020/12/26 03:17:59;;;;;;;18.02;11.35;;;;;;;1.95;90.68;101216.09;5019609;28;20049;-72
2020/12/26 03:20:25;;;;;;;26.67;11.15;;;;;;;2.01;90.82;101218.69;5035456;28;20053;-72
2020/12/26 03:22:51;;;;;;;21.20;11.48;;;;;;;2.01;91.12;101226.56;5036949;28;20085;-72
2020/12/26 03:25:19;;;;;;;18.55;11.25;;;;;;;2.06;90.88;101213.38;5037131;28;20064;-73
2020/12/26 03:27:46;;;;;;;17.73;10.85;;;;;;;2.14;90.56;101218.56;5036971;28;20139;-72
2020/12/26 03:30:12;;;;;;;16.63;10.00;;;;;;;2.15;90.52;101220.31;5037225;28;20060;-72
2020/12/26 03:32:38;;;;;;;24.25;11.98;;;;;;;2.10;90.57;101208.94;5036999;28;20117;-72
2020/12/26 03:35:05;;;;;;;17.77;11.07;;;;;;;2.05;90.88;101209.00;5035880;28;20050;-72
2020/12/26 03:37:35;;;;;;;16.33;11.45;;;;;;;2.09;90.96;101205.47;5036769;28;20064;-72
2020/12/26 03:40:01;;;;;;;17.35;10.65;;;;;;;2.08;91.41;101202.81;5036616;28;20489;-73
2020/12/26 03:42:28;;;;;;;22.15;11.48;;;;;;;2.08;91.07;101198.44;5036842;28;20049;-73
2020/12/26 03:44:54;;;;;;;18.02;11.30;;;;;;;2.14;90.91;101200.13;5036469;28;20046;-72
2020/12/26 03:47:20;;;;;;;15.02;10.35;;;;;;;2.08;90.89;101181.75;5036783;28;20384;-72
2020/12/26 03:49:46;;;;;;;17.67;10.35;;;;;;;2.14;91.23;101193.09;5036792;28;20350;-73
2020/12/26 03:52:12;;;;;;;21.10;10.32;;;;;;;2.12;91.15;101191.38;5036581;28;20095;-73
2020/12/26 03:54:39;;;;;;;14.50;9.75;;;;;;;2.15;91.32;101188.72;5036439;28;20316;-73
2020/12/26 03:57:05;;;;;;;14.90;10.60;;;;;;;2.17;91.37;101185.19;5018818;28;20049;-73
2020/12/26 03:59:31;;;;;;;23.88;11.15;;;;;;;2.16;91.20;101183.44;5036233;28;20618;-73
2020/12/26 04:01:57;;;;;;;19.35;10.50;;;;;;;2.15;91.34;101183.44;5036179;28;20052;-73
2020/12/26 04:04:24;;;;;;;21.17;11.50;;;;;;;2.10;91.60;101182.59;5036450;28;20057;-73
2020/12/26 04:06:53;;;;;;;16.85;11.10;;;;;;;2.24;91.87;101179.84;5036248;28;20080;-72
2020/12/26 04:09:20;;;;;;;21.65;11.98;;;;;;;2.15;91.51;101173.78;5036065;28;20057;-72
2020/12/26 04:11:46;;;;;;;21.90;13.05;;;;;;;2.20;91.84;101184.28;5036215;28;20079;-73
2020/12/26 04:14:13;;;;;;;20.95;11.88;;;;;;;2.18;92.08;101178.13;5035643;28;20431;-72
2020/12/26 04:16:39;;;;;;;21.50;12.27;;;;;;;2.27;91.50;101170.16;5035855;28;20514;-72
2020/12/26 04:19:05;;;;;;;23.50;12.60;;;;;;;2.19;91.43;101165.84;5035905;28;20053;-72
2020/12/26 04:21:50;;;;;;;22.48;11.48;;;;;;;2.24;92.33;101172.81;5035768;28;20045;-73
2020/12/26 04:24:16;;;;;;;20.45;11.27;;;;;;;2.18;91.78;101172.88;5035937;28;20053;-72
2020/12/26 04:26:42;;;;;;;19.75;10.70;;;;;;;2.21;92.07;101164.06;5035599;28;20053;-72
2020/12/26 04:29:09;;;;;;;17.65;10.82;;;;;;;2.21;92.16;101162.31;5035626;28;20057;-73
2020/12/26 04:31:36;;;;;;;14.23;10.77;;;;;;;2.30;92.03;101162.22;5018275;28;20053;-72
2020/12/26 04:34:02;;;;;;;19.70;10.15;;;;;;;2.31;92.07;101153.41;5033588;28;20049;-72
2020/12/26 04:36:28;;;;;;;14.75;10.18;;;;;;;2.29;91.53;101149.06;5018487;28;20049;-72
2020/12/26 04:38:54;;;;;;;15.57;9.80;;;;;;;2.29;91.94;101151.72;5035338;28;20103;-73
2020/12/26 04:41:21;;;;;;;16.30;10.10;;;;;;;2.28;91.91;101147.31;5035408;28;20359;-72
2020/12/26 04:43:47;;;;;;;12.48;8.63;;;;;;;2.25;91.39;101128.91;5018158;28;20435;-72
2020/12/26 04:46:18;;;;;;;11.25;8.52;;;;;;;2.35;91.54;101127.06;5034283;28;20088;-73
2020/12/26 04:49:00;;;;;;;;;;;;;;;2.26;91.90;101118.38;5035991;28;20060;-73
2020/12/26 04:51:27;;;;;;;8.38;6.65;;;;;;;2.21;91.35;101107.00;5035313;28;19944;-72
2020/12/26 04:54:05;;;;;;;12.40;6.95;;;;;;;2.26;91.76;101121.00;5035244;28;20115;-72
2020/12/26 04:56:39;;;;;;;12.95;7.72;;;;;;;2.15;92.26;101114.97;5035336;28;20045;-72
2020/12/26 04:59:07;;;;;;;10.75;7.05;;;;;;;2.19;91.87;101111.44;5035248;28;20061;-73
2020/12/26 05:01:37;;;;;;;18.42;7.15;;;;;;;2.14;92.21;101107.97;5035100;28;20056;-72
2020/12/26 05:04:03;;;;;;;13.15;7.00;;;;;;;2.20;91.57;101097.34;5034946;28;20057;-72
2020/12/26 05:06:44;;;;;;;10.32;6.45;;;;;;;2.12;91.97;101086.91;5017954;28;20061;-74
2020/12/26 05:09:11;;;;;;;7.70;5.18;;;;;;;2.11;92.18;101092.16;5035064;28;20053;-72
2020/12/26 05:11:37;;;;;;;14.35;8.02;;;;;;;2.06;92.11;101086.97;5034001;28;20099;-72
2020/12/26 05:14:06;;;;;;;14.55;7.22;;;;;;;2.04;92.29;101086.13;5014248;28;20120;-72
2020/12/26 05:16:32;;;;;;;10.15;6.10;;;;;;;2.06;91.94;101088.75;5016129;28;20058;-72
2020/12/26 05:18:58;;;;;;;10.10;6.32;;;;;;;1.92;91.63;101073.97;5015102;28;20109;-72
2020/12/26 05:21:25;;;;;;;13.45;6.13;;;;;;;2.00;91.99;101085.28;5015240;28;20089;-72
2020/12/26 05:24:05;;;;;;;11.50;5.93;;;;;;;1.78;92.58;101073.22;5015211;28;20050;-72
2020/12/26 05:26:40;;;;;;;15.73;7.63;;;;;;;1.89;92.33;101088.03;5015192;28;20085;-73
2020/12/26 05:29:07;;;;;;;14.48;7.25;;;;;;;1.92;91.95;101084.50;5015049;28;20049;-72
2020/12/26 05:32:13;;;;;;;12.02;7.03;;;;;;;1.85;92.18;101080.19;5015437;28;20355;-74
2020/12/26 05:34:45;;;;;;;13.63;7.25;;;;;;;1.83;92.14;101077.53;4993278;28;20133;-72
2020/12/26 05:37:14;;;;;;;16.58;8.40;;;;;;;1.76;92.34;101071.47;4977454;28;20050;-71
2020/12/26 05:39:40;;;;;;;14.00;8.35;;;;;;;1.72;92.77;101077.66;5005093;28;20104;-72
2020/12/26 05:42:07;;;;;;;17.08;9.23;;;;;;;1.71;92.89;101083.81;5015320;28;20061;-72
2020/12/26 05:44:36;;;;;;;17.92;10.15;;;;;;;1.58;92.86;101072.50;5016987;28;20077;-73
2020/12/26 05:47:06;;;;;;;14.15;9.73;;;;;;;1.70;92.91;101081.19;5019140;28;20100;-72
2020/12/26 05:49:37;;;;;;;12.52;9.85;;;;;;;1.71;93.02;101078.53;5019186;28;20060;-73
2020/12/26 05:52:13;;;;;;;13.77;7.40;;;;;;;1.71;92.79;101067.13;5018827;28;20061;-72
2020/12/26 05:54:49;;;;;;;15.18;8.82;;;;;;;1.75;92.68;101066.22;5019080;28;20112;-73
2020/12/26 05:57:16;;;;;;;17.77;9.80;;;;;;;1.73;92.74;101075.88;5019047;28;20057;-72
2020/12/26 05:59:51;;;;;;;17.50;9.32;;;;;;;1.71;92.79;101077.66;5017485;28;20062;-72
2020/12/26 06:02:24;;;;;;;15.75;9.70;;;;;;;1.72;92.88;101074.13;5018694;28;20423;-72
2020/12/26 06:04:56;;;;;;;16.77;10.32;;;;;;;1.78;92.66;101079.34;5018610;28;20050;-72
2020/12/26 06:07:30;;;;;;;16.23;10.15;;;;;;;1.79;92.71;101070.56;5018836;28;20058;-72
2020/12/26 06:09:59;;;;;;;14.02;9.70;;;;;;;1.75;92.71;101074.97;5018871;28;20060;-73
2020/12/26 06:12:27;;;;;;;12.80;9.90;;;;;;;1.71;92.79;101073.28;5018612;28;20046;-72
2020/12/26 06:14:54;;;;;;;15.45;10.00;;;;;;;1.71;92.71;101057.50;5038247;28;20103;-72
2020/12/26 06:17:23;;;;;;;17.80;10.80;;;;;;;1.74;92.73;101062.72;5038620;28;20056;-73
2020/12/26 06:20:07;;;;;;;20.52;10.77;;;;;;;1.72;93.00;101074.13;5021070;28;20053;-73
2020/12/26 06:22:46;;;;;;;19.35;11.20;;;;;;;1.70;93.08;101076.78;5038292;28;20111;-73
2020/12/26 06:25:15;;;;;;;21.98;12.38;;;;;;;1.70;93.09;101076.78;5020528;28;20252;-71
2020/12/26 06:28:00;;;;;;;17.92;10.90;;;;;;;1.71;93.01;101077.66;5038452;28;20054;-72
2020/12/26 06:30:28;;;;;;;19.40;11.32;;;;;;;1.71;92.80;101077.66;5020937;28;20057;-72
2020/12/26 06:32:56;;;;;;;15.93;11.45;;;;;;;1.68;93.30;101083.81;5037971;28;20045;-72
2020/12/26 06:35:23;;;;;;;17.10;11.25;;;;;;;1.68;93.13;101085.59;5037765;28;20041;-73
2020/12/26 06:38:10;;;;;;;18.70;12.43;;;;;;;1.68;93.07;101078.56;5037656;28;20053;-72
2020/12/26 06:40:37;;;;;;;17.25;12.15;;;;;;;1.71;92.93;101082.94;5037885;28;20046;-73
2020/12/26 06:43:03;;;;;;;15.70;12.45;;;;;;;1.62;93.34;101076.88;5020195;28;20065;-72
2020/12/26 06:45:36;;;;;;;20.40;12.70;;;;;;;1.65;93.11;101078.59;5037688;28;20060;-72
2020/12/26 06:48:04;;;;;;;20.15;13.15;;;;;;;1.64;93.49;101087.38;5021297;28;20053;-72
2020/12/26 06:50:32;;;;;;;20.33;13.98;;;;;;;1.64;93.14;101092.66;5037385;28;20056;-72
2020/12/26 06:52:58;;;;;;;18.38;13.45;;;;;;;1.59;93.13;101103.19;5020406;28;20049;-72
2020/12/26 06:55:42;;;;;;;20.92;14.60;;;;;;;1.37;93.55;101067.44;5036651;28;20076;-72
2020/12/26 06:58:12;;;;;;;22.33;13.85;;;;;;;1.53;93.51;101099.75;5037717;28;20053;-72
2020/12/26 07:00:38;;;;;;;17.90;12.95;;;;;;;1.56;93.36;101094.44;5037826;28;20115;-72
2020/12/26 07:03:20;;;;;;;21.83;13.82;;;;;;;1.50;93.50;101092.75;5019755;28;20076;-72
2020/12/26 07:05:48;;;;;;;22.20;12.60;;;;;;;1.45;93.41;101076.13;5037225;28;20049;-73
2020/12/26 07:08:24;;;;;;;18.70;12.88;;;;;;;1.49;93.21;101097.13;5037252;28;20050;-73
2020/12/26 07:10:51;;;;;;;21.02;12.65;;;;;;;1.42;93.29;101089.31;5019978;28;20053;-73
2020/12/26 07:13:43;;;;;;;15.82;11.50;;;;;;;1.46;93.22;101109.44;5036928;28;20057;-73
2020/12/26 07:16:41;;;;;;;19.70;12.27;;;;;;;1.45;93.34;101107.69;5037117;28;20053;-72
2020/12/26 07:19:21;;;;;;;20.88;12.60;;;;;;;1.44;93.19;101109.47;5037055;28;20061;-73
2020/12/26 07:21:55;;;;;;;20.27;11.25;;;;;;;1.45;93.14;101112.97;5036907;28;20057;-73
2020/12/26 07:24:24;;;;;;;19.60;12.63;;;;;;;1.49;92.71;101120.81;5037025;28;20045;-73
2020/12/26 07:26:52;;;;;;;15.63;11.85;;;;;;;1.35;92.91;101104.25;5036859;28;20328;-78
2020/12/26 07:29:27;;;;;;;21.08;12.60;;;;;;;1.42;92.71;101113.84;5018213;28;20049;-79
2020/12/26 07:31:54;;;;;;;18.23;12.60;;;;;;;1.32;92.87;101106.94;5019271;28;20083;-80
2020/12/26 07:34:37;;;;;;;27.10;13.25;;;;;;;1.37;92.38;101123.56;5036586;28;20060;-77
2020/12/26 07:37:04;;;;;;;20.95;11.82;;;;;;;1.38;91.92;101121.78;5037366;28;20053;-75
2020/12/26 07:39:31;;;;;;;18.13;12.02;;;;;;;1.37;91.82;101123.56;5036699;28;20053;-78
2020/12/26 07:41:57;;;;;;;16.65;11.55;;;;;;;1.37;91.47;101125.31;5019507;28;20053;-77
2020/12/26 07:44:28;;;;;;;16.10;11.55;;;;;;;1.35;91.18;101127.94;5036679;28;20112;-73
2020/12/26 07:46:55;;;;;;;18.88;12.05;;;;;;;1.36;90.70;101119.16;5036580;28;20123;-75
2020/12/26 07:49:23;;;;;;;21.67;12.07;;;;;;;1.36;90.53;101116.53;5024149;28;20046;-77
2020/12/26 07:52:06;;;;;;;20.08;12.10;;;;;;;1.37;90.27;101115.66;5036521;28;20053;-73
2020/12/26 07:54:33;;;;;;;21.50;11.80;;;;;;;1.38;90.16;101106.88;5055090;28;20537;-72
2020/12/26 07:57:00;;;;;;;21.02;12.45;;;;;;;1.34;90.26;101119.19;5056319;28;20061;-75
2020/12/26 07:59:26;;;;;;;18.73;11.13;;;;;;;1.35;89.91;101117.41;5055391;28;20060;-77
2020/12/26 08:01:55;;;;;;;17.73;10.27;;;;;;;1.34;89.17;101123.56;5056247;28;20098;-74
2020/12/26 08:04:22;;;;;;;23.05;10.63;;;;;;;1.33;89.45;101119.19;5056053;28;20053;-73
2020/12/26 08:06:50;;;;;;;22.73;12.73;;;;;;;1.39;89.19;101134.94;5038547;28;20048;-73
2020/12/26 08:09:18;;;;;;;20.05;11.60;;;;;;;1.39;89.14;101129.66;5055993;28;20052;-74
2020/12/26 08:11:45;;;;;;;16.50;10.38;;;;;;;1.37;88.89;101131.44;5045786;28;20083;-76
2020/12/26 08:14:13;;;;;;;17.10;11.82;;;;;;;1.38;89.09;101130.56;5027355;28;20057;-73
2020/12/26 08:16:40;;;;;;;21.73;11.98;;;;;;;1.42;88.73;101127.00;5048304;28;20075;-75
2020/12/26 08:19:06;;;;;;;18.55;9.57;;;;;;;1.43;88.24;101128.78;5056101;28;20354;-79
2020/12/26 08:21:32;;;;;;;20.42;11.18;;;;;;;1.44;88.38;101125.25;5055926;28;20076;-77
2020/12/26 08:24:04;;;;;;;19.38;11.70;;;;;;;1.39;88.74;101126.16;5049253;28;20103;-74
2020/12/26 08:26:32;;;;;;;20.92;11.15;;;;;;;1.41;88.46;101134.94;5035638;28;20056;-74
2020/12/26 08:29:00;;;;;;;20.30;11.18;;;;;;;1.41;88.29;101129.66;5035873;28;20057;-74
2020/12/26 08:31:27;;;;;;;17.67;10.82;;;;;;;1.49;87.92;101141.84;5035773;28;20057;-73
2020/12/26 08:34:09;;;;;;;22.63;11.90;;;;;;;1.48;88.00;101134.84;5035867;28;20065;-73
2020/12/26 08:36:38;;;;;;;25.27;11.85;;;;;;;1.45;88.23;101129.63;5035399;28;20080;-73
2020/12/26 08:39:08;;;;;;;20.60;11.00;;;;;;;1.48;87.91;101134.00;5035301;28;20480;-75
2020/12/26 08:41:43;;;;;;;19.98;11.18;;;;;;;1.48;87.34;101128.75;5035738;28;20346;-71
2020/12/26 08:44:10;;;;;;;22.35;10.82;;;;;;;1.34;87.53;101120.94;5035345;28;20053;-74
2020/12/26 08:46:45;;;;;;;17.40;10.80;;;;;;;1.48;87.15;101134.00;5035446;28;20053;-77
2020/12/26 08:49:12;;;;;;;16.73;10.27;;;;;;;1.48;87.03;101134.84;5035380;28;20088;-72
2020/12/26 08:51:44;;;;;;;14.93;9.07;;;;;;;1.58;86.91;101135.66;5035390;28;20461;-72
2020/12/26 08:54:23;;;;;;;12.13;8.00;;;;;;;1.55;86.51;101140.06;5018047;28;20355;-72
2020/12/26 08:56:50;;;;;;;15.10;9.45;;;;;;;1.59;86.33;101126.03;5035177;28;20064;-72
2020/12/26 08:59:28;;;;;;;18.20;10.38;;;;;;;1.63;86.09;101119.81;5035474;28;20053;-77
2020/12/26 09:01:56;;;;;;;21.92;9.52;;;;;;;1.61;85.99;101113.72;5035181;28;20053;-76
2020/12/26 09:04:23;;;;;;;16.13;9.55;;;;;;;1.51;85.56;101085.75;5035105;28;20060;-80
2020/12/26 09:06:49;;;;;;;19.38;10.65;;;;;;;1.66;85.30;101111.91;5035171;28;20053;-78
2020/12/26 09:09:24;;;;;;;14.75;7.80;;;;;;;1.74;85.38;101101.34;5034087;28;20052;-74
2020/12/26 09:12:02;;;;;;;17.27;8.95;;;;;;;1.68;85.02;101091.72;5034830;28;20426;-77
2020/12/26 09:14:28;;;;;;;14.25;8.18;;;;;;;1.80;85.11;101100.41;5034882;28;20089;-72
2020/12/26 09:16:59;;;;;;;16.63;8.95;;;;;;;1.76;84.94;101103.03;5036194;28;20049;-73
2020/12/26 09:19:27;;;;;;;15.38;8.25;;;;;;;1.67;84.80;101071.56;5046196;28;20041;-76
2020/12/26 09:22:09;;;;;;;14.07;8.82;;;;;;;1.86;85.33;101092.44;5034536;28;20053;-75
2020/12/26 09:24:36;;;;;;;14.63;7.43;;;;;;;1.89;84.27;101095.91;5034496;28;20442;-76
2020/12/26 09:27:02;;;;;;;10.95;7.10;;;;;;;1.88;84.10;101095.94;5045161;28;20170;-77
2020/12/26 09:29:29;;;;;;;14.30;7.82;;;;;;;1.84;84.56;101071.38;5035856;28;20172;-76
2020/12/26 09:31:57;;;;;;;12.00;7.25;;;;;;;1.99;84.21;101067.75;5034614;28;20048;-76
2020/12/26 09:34:25;;;;;;;13.13;7.55;;;;;;;2.04;83.65;101075.59;5038625;28;20135;-74
2020/12/26 09:37:06;;;;;;;12.63;7.15;;;;;;;2.08;83.71;101073.78;5034805;28;20057;-74
2020/12/26 09:39:37;;;;;;;11.82;6.30;;;;;;;2.15;83.17;101078.09;5034899;28;20049;-75
2020/12/26 09:42:04;;;;;;;11.38;6.85;;;;;;;2.18;82.66;101064.88;5034421;28;20103;-75
2020/12/26 09:44:30;;;;;;;13.82;7.00;;;;;;;2.22;82.29;101058.69;5039942;28;20045;-74
2020/12/26 09:47:01;;;;;;;12.27;6.18;;;;;;;2.29;82.29;101067.41;5034067;28;20091;-75
2020/12/26 09:49:28;;;;;;;11.90;6.25;;;;;;;2.27;82.23;101062.16;5034411;28;20057;-75
2020/12/26 09:51:54;;;;;;;11.38;6.20;;;;;;;2.33;82.62;101066.47;5036513;28;20049;-75
2020/12/26 09:54:20;;;;;;;12.35;5.85;;;;;;;2.34;82.10;101055.03;5045196;28;20048;-74
2020/12/26 09:56:46;;;;;;;9.20;5.53;;;;;;;2.39;81.94;101065.53;5040767;28;20053;-74
2020/12/26 09:59:12;;;;;;;14.65;6.47;;;;;;;2.42;82.49;101055.84;5043498;28;20328;-78
2020/12/26 10:01:41;;;;;;;12.85;5.82;;;;;;;2.49;81.97;101056.59;5049189;28;20053;-73
2020/12/26 10:04:07;;;;;;;13.85;5.93;;;;;;;2.49;82.52;101053.97;5054136;28;20053;-74
2020/12/26 10:06:33;;;;;;;15.45;6.32;;;;;;;2.39;81.79;101031.28;5020583;28;20107;-73
2020/12/26 10:09:00;;;;;;;14.73;6.00;;;;;;;2.49;82.13;101048.69;5054655;28;20049;-74
2020/12/26 10:11:26;;;;;;;9.38;5.28;;;;;;;2.54;82.52;101038.09;5054788;28;20056;-75
2020/12/26 10:13:52;;;;;;;10.55;5.80;;;;;;;2.62;82.54;101035.38;5026139;28;20067;-75
2020/12/26 10:16:19;;;;;;;10.70;7.50;;;;;;;2.58;82.79;101019.56;5044170;28;20041;-75
2020/12/26 10:18:46;;;;;;;16.05;5.82;;;;;;;2.67;82.68;101025.63;5039802;28;20402;-73
2020/12/26 10:21:18;;;;;;;9.77;5.20;;;;;;;2.70;81.92;101015.03;5033878;28;20079;-74
2020/12/26 10:23:45;;;;;;;8.00;4.75;;;;;;;2.76;81.60;101017.59;5036636;28;20056;-75
2020/12/26 10:26:11;;;;;;;12.93;5.13;;;;;;;2.79;81.68;101016.66;5034639;28;20068;-74
2020/12/26 10:28:38;;;;;;;17.67;5.95;;;;;;;2.89;82.24;101023.53;5034140;28;20053;-75
2020/12/26 10:31:04;;;;;;;10.90;5.75;;;;;;;2.81;81.12;100999.06;5035256;28;20053;-78
2020/12/26 10:33:31;;;;;;;15.27;5.78;;;;;;;2.92;81.44;101012.06;5036888;28;20054;-75
2020/12/26 10:35:57;;;;;;;10.73;5.35;;;;;;;2.92;81.40;101001.53;5038043;28;20065;-75
2020/12/26 10:38:24;;;;;;;13.55;5.13;;;;;;;3.01;80.94;100985.56;5037945;28;20079;-78
2020/12/26 10:40:50;;;;;;;9.18;5.28;;;;;;;3.19;80.58;100989.66;5036968;28;20115;-76
2020/12/26 10:43:17;;;;;;;9.20;5.30;;;;;;;3.30;79.78;100985.97;5053093;28;20057;-72
2020/12/26 10:45:44;;;;;;;12.18;5.18;;;;;;;3.33;79.48;100976.22;5035739;28;20084;-75
2020/12/26 10:48:10;;;;;;;12.75;5.07;;;;;;;3.41;79.64;100976.09;5037200;28;20046;-74
2020/12/26 10:50:36;;;;;;;13.75;5.38;;;;;;;3.52;79.66;100981.19;5036695;28;20076;-73
2020/12/26 10:53:03;;;;;;;10.80;5.45;;;;;;;3.49;79.31;100966.25;5037572;28;20061;-72
2020/12/26 10:55:29;;;;;;;13.60;5.28;;;;;;;3.56;78.72;100971.44;5037330;28;20045;-73
2020/12/26 10:57:55;;;;;;;9.40;4.80;;;;;;;3.53;79.13;100973.25;5039048;28;20057;-75
2020/12/26 11:00:21;;;;;;;8.52;5.32;;;;;;;3.57;79.21;100978.44;5039877;28;20065;-72
2020/12/26 11:02:48;;;;;;;11.32;5.13;;;;;;;3.58;78.90;100945.88;5046916;28;20045;-73
2020/12/26 11:05:15;;;;;;;14.85;5.88;;;;;;;3.69;79.08;100950.97;5021089;28;20049;-72
2020/12/26 11:07:42;;;;;;;8.35;5.00;;;;;;;3.69;78.96;100943.03;5019702;28;20049;-73
2020/12/26 11:10:08;;;;;;;11.63;5.30;;;;;;;3.69;79.18;100937.75;5039123;28;20486;-73
2020/12/26 11:12:34;;;;;;;9.68;4.90;;;;;;;3.63;78.97;100938.72;5041400;28;20045;-74
2020/12/26 11:15:01;;;;;;;10.45;5.55;;;;;;;3.52;79.19;100931.03;5034483;28;20056;-75
2020/12/26 11:17:27;;;;;;;12.38;5.05;;;;;;;3.38;79.80;100936.59;5022671;28;20049;-77
2020/12/26 11:19:53;;;;;;;9.75;5.13;;;;;;;3.30;79.40;100926.16;5039700;28;20054;-73
2020/12/26 11:22:19;;;;;;;13.13;4.95;;;;;;;3.19;80.31;100912.28;5036982;28;20378;-72
2020/12/26 11:24:45;;;;;;;15.88;5.40;;;;;;;3.20;80.87;100912.25;5036284;28;20712;-72
2020/12/26 11:27:13;;;;;;;9.32;4.50;;;;;;;3.21;80.83;100884.13;5037789;28;20048;-74
2020/12/26 11:29:39;;;;;;;16.38;4.88;;;;;;;3.29;80.74;100884.84;5040066;28;20041;-74